McWhorter, West Virginia
Current Conditions -  °F | °C
As of 1:10 PM on Thursday 27 Nov 2014 (Local Time) from KW22 Reporting Station
Overcast Overcast  
Wind Chill: 24°   Ceiling: 3600
Heat Index: 32°   Visibility: 10mi
Dew Point: 25°   Wind: 9mph
Humidity: 75%   Direction: 260°W
Pressure: 30.09"   Gusts: 18mph
Location:  39.1567°N, 80.3538°W
Report Text: KW22 271810Z AUTO 26008G16KT 10SM FEW020 OVC036 M00/M04 A3009 RMK AO2
Loading
Personal Weather Stations






























Interactive Weather Map New forecast layout! Learn more

10-Day Weather Forecast

Advertisements
Track Severe Weather on mobile